createdAt,value
2022-07-29T00:11:07.563Z,21.1
2022-07-29T00:25:41.432Z,21.2
2022-07-29T00:40:11.150Z,21.2
2022-07-29T00:54:34.315Z,21
2022-07-29T01:08:47.429Z,21.2
2022-07-29T01:23:14.268Z,21.1
2022-07-29T01:37:41.854Z,21.1
2022-07-29T01:52:09.059Z,21.1
2022-07-29T02:06:37.300Z,20.8
2022-07-29T02:21:04.752Z,20.7
2022-07-29T02:35:38.010Z,20.7
2022-07-29T02:50:02.820Z,20.5
2022-07-29T03:04:35.463Z,20.7
2022-07-29T03:18:57.792Z,20.7
2022-07-29T03:33:25.122Z,20.6
2022-07-29T03:47:52.968Z,20.4
2022-07-29T04:02:24.432Z,20.3
2022-07-29T04:16:52.181Z,20.3
2022-07-29T04:31:25.361Z,20.2
2022-07-29T04:45:50.745Z,20.4
2022-07-29T05:00:18.095Z,20.3
2022-07-29T05:14:44.386Z,20.2
2022-07-29T05:29:41.293Z,19.7
2022-07-29T05:43:56.199Z,19.6
2022-07-29T05:58:24.469Z,20.1
2022-07-29T06:12:53.095Z,20.3
2022-07-29T06:27:23.066Z,20.9
2022-07-29T06:41:51.440Z,21.1
2022-07-29T06:56:19.430Z,21
2022-07-29T07:10:49.453Z,21.8
2022-07-29T07:25:18.251Z,21.9
2022-07-29T07:39:54.110Z,26.9
2022-07-29T07:54:30.134Z,27.8
2022-07-29T08:08:56.213Z,25.3
2022-07-29T08:23:47.359Z,26.1
2022-07-29T08:38:27.782Z,28
2022-07-29T08:52:59.975Z,29
2022-07-29T09:07:38.066Z,28.1
2022-07-29T09:21:53.095Z,28.1
2022-07-29T09:36:16.960Z,27
2022-07-29T09:50:47.916Z,27
2022-07-29T10:05:14.929Z,26.8
2022-07-29T10:19:42.069Z,26.1
2022-07-29T10:34:12.076Z,27.2
2022-07-29T10:48:42.746Z,28.1
2022-07-29T11:03:12.228Z,28.2
2022-07-29T11:17:47.352Z,28.3
2022-07-29T11:32:15.704Z,28.7
2022-07-29T12:20:41.808Z,30.1
2022-07-29T12:35:10.394Z,29.3
2022-07-29T12:49:39.631Z,29.8
2022-07-29T13:04:06.345Z,29.9
2022-07-29T13:18:34.568Z,29.8
2022-07-29T13:33:01.472Z,29.7
2022-07-29T13:47:32.011Z,29.1
2022-07-29T14:01:56.618Z,28.5
2022-07-29T14:16:24.089Z,27.9
2022-07-29T14:30:51.093Z,27.8
2022-07-29T14:45:17.838Z,27.4
2022-07-29T14:59:45.818Z,27.4
2022-07-29T15:14:13.685Z,27.1
2022-07-29T15:28:42.858Z,27.3
2022-07-29T15:43:11.276Z,27.2
2022-07-29T15:57:38.953Z,27.3
2022-07-29T16:12:15.134Z,27
2022-07-29T16:26:37.417Z,26.8
2022-07-29T16:41:03.674Z,26.7
2022-07-29T16:55:31.543Z,26.6
2022-07-29T17:10:03.680Z,26.6
2022-07-29T17:24:27.816Z,26.2
2022-07-29T17:38:55.030Z,26.1
2022-07-29T17:53:22.604Z,25.8
2022-07-29T18:07:49.205Z,25.5
2022-07-29T18:22:18.163Z,25
2022-07-29T18:36:43.533Z,24.5
2022-07-29T18:51:10.743Z,24.5
2022-07-29T19:05:37.385Z,24.3
2022-07-29T19:20:05.023Z,24.1
2022-07-29T19:34:32.754Z,24.2
2022-07-29T19:48:58.295Z,23.1
2022-07-29T20:03:26.220Z,23.4
2022-07-29T20:17:57.100Z,23.4
2022-07-29T20:32:20.450Z,23.1
2022-07-29T20:46:48.023Z,22.9
2022-07-29T21:01:14.815Z,22.3
2022-07-29T21:15:42.460Z,22.4
2022-07-29T21:30:09.645Z,22.4
2022-07-29T21:44:38.335Z,22.4
2022-07-29T21:59:05.466Z,22
2022-07-29T22:13:35.520Z,21.9
2022-07-29T22:28:04.082Z,21.8
2022-07-29T22:42:32.377Z,22
2022-07-29T22:57:01.593Z,21.8
2022-07-29T23:11:29.539Z,21.8
2022-07-29T23:25:57.159Z,21.6
2022-07-29T23:40:24.956Z,21.1
2022-07-29T23:55:36.260Z,20.7
